createdAt,value
2022-11-20T00:02:59.204Z,10.20
2022-11-20T00:06:03.614Z,10.80
2022-11-20T00:09:06.387Z,10.30
2022-11-20T00:12:08.776Z,9.95
2022-11-20T00:15:11.190Z,10.05
2022-11-20T00:18:13.485Z,9.40
2022-11-20T00:21:19.476Z,10.65
2022-11-20T00:24:21.809Z,11.43
2022-11-20T00:27:25.398Z,9.25
2022-11-20T00:30:27.721Z,9.02
2022-11-20T00:33:30.420Z,10.23
2022-11-20T00:36:34.970Z,10.07
2022-11-20T00:39:37.204Z,10.35
2022-11-20T00:42:39.583Z,10.90
2022-11-20T00:45:41.847Z,9.73
2022-11-20T00:48:44.924Z,11.00
2022-11-20T00:51:48.579Z,10.93
2022-11-20T00:54:51.048Z,11.00
2022-11-20T00:57:53.382Z,10.15
2022-11-20T01:01:01.003Z,9.52
2022-11-20T01:04:03.679Z,11.13
2022-11-20T01:07:07.355Z,10.57
2022-11-20T01:10:09.981Z,9.15
2022-11-20T01:13:30.833Z,10.93
2022-11-20T01:16:34.859Z,9.20
2022-11-20T01:19:37.186Z,10.27
2022-11-20T01:22:40.755Z,10.73
2022-11-20T01:25:43.052Z,9.98
2022-11-20T01:28:45.540Z,10.40
2022-11-20T01:31:48.222Z,10.25
2022-11-20T01:34:50.467Z,10.15
2022-11-20T01:37:54.179Z,10.52
2022-11-20T01:40:56.967Z,10.60
2022-11-20T01:43:59.395Z,10.63
2022-11-20T01:47:03.597Z,10.48
2022-11-20T01:50:07.476Z,11.10
2022-11-20T01:53:14.213Z,10.63
2022-11-20T01:56:16.804Z,9.88
2022-11-20T01:59:20.688Z,10.43
2022-11-20T02:02:23.191Z,9.73
2022-11-20T02:05:30.055Z,9.20
2022-11-20T02:08:33.877Z,9.98
2022-11-20T02:11:36.172Z,10.57
2022-11-20T02:14:38.527Z,9.88
2022-11-20T02:17:40.805Z,10.45
2022-11-20T02:20:45.157Z,10.57
2022-11-20T02:24:12.853Z,10.55
2022-11-20T02:27:16.499Z,8.90
2022-11-20T02:30:18.942Z,9.07
2022-11-20T02:33:21.219Z,9.20
2022-11-20T02:36:25.586Z,11.15
2022-11-20T02:39:29.467Z,10.32
2022-11-20T02:42:31.880Z,8.77
2022-11-20T02:45:34.315Z,7.07
2022-11-20T02:48:36.557Z,9.25
2022-11-20T02:51:38.841Z,10.65
2022-11-20T02:54:42.524Z,10.00
2022-11-20T02:57:44.884Z,7.78
2022-11-20T03:00:47.156Z,10.48
2022-11-20T03:03:49.738Z,9.98
2022-11-20T03:06:52.016Z,9.80
2022-11-20T03:09:55.663Z,9.63
2022-11-20T03:12:58.034Z,9.93
2022-11-20T03:16:06.622Z,10.30
2022-11-20T03:19:08.871Z,10.45
2022-11-20T03:22:11.105Z,9.68
2022-11-20T03:25:14.867Z,10.23
2022-11-20T03:28:17.114Z,9.40
2022-11-20T03:31:21.455Z,9.73
2022-11-20T03:34:24.155Z,9.43
2022-11-20T03:37:26.390Z,10.27
2022-11-20T03:40:30.030Z,11.02
2022-11-20T03:43:32.862Z,10.07
2022-11-20T03:46:35.373Z,9.38
2022-11-20T03:49:37.955Z,10.30
2022-11-20T03:52:40.435Z,10.45
2022-11-20T03:55:44.134Z,9.88
2022-11-20T03:58:46.723Z,10.27
2022-11-20T04:01:49.693Z,9.93
2022-11-20T04:04:52.120Z,9.20
2022-11-20T04:07:54.595Z,9.82
2022-11-20T04:10:58.219Z,10.80
2022-11-20T04:14:02.529Z,9.93
2022-11-20T04:17:06.641Z,10.82
2022-11-20T04:20:09.778Z,9.70
2022-11-20T04:23:12.021Z,10.75
2022-11-20T04:26:15.686Z,10.57
2022-11-20T04:29:17.960Z,11.30
2022-11-20T04:32:20.287Z,9.38
2022-11-20T04:35:22.523Z,9.60
2022-11-20T04:38:24.727Z,11.25
2022-11-20T04:41:30.477Z,11.85
2022-11-20T04:44:32.736Z,12.48
2022-11-20T04:47:35.019Z,11.30
2022-11-20T04:50:41.091Z,12.90
2022-11-20T04:53:43.466Z,12.20
2022-11-20T04:56:48.819Z,11.20
2022-11-20T04:59:51.198Z,11.95
2022-11-20T05:02:53.715Z,10.20
2022-11-20T05:05:56.066Z,10.32
2022-11-20T05:08:58.411Z,9.82
2022-11-20T05:12:01.987Z,11.13
2022-11-20T05:15:04.779Z,11.27
2022-11-20T05:18:08.317Z,11.70
2022-11-20T05:21:11.858Z,10.98
2022-11-20T05:24:15.312Z,11.75
2022-11-20T05:27:19.010Z,12.00
2022-11-20T05:30:21.315Z,11.73
2022-11-20T05:33:23.890Z,12.15
2022-11-20T05:36:26.471Z,11.93
2022-11-20T05:39:28.902Z,10.73
2022-11-20T05:42:32.849Z,11.00
2022-11-20T05:45:35.176Z,10.85
2022-11-20T05:48:38.536Z,11.52
2022-11-20T05:51:40.745Z,11.35
2022-11-20T05:54:43.108Z,10.77
2022-11-20T05:57:46.793Z,11.20
2022-11-20T06:00:49.192Z,11.07
2022-11-20T06:03:52.177Z,11.45
2022-11-20T06:06:54.643Z,11.25
2022-11-20T06:09:56.933Z,11.13
2022-11-20T06:13:00.650Z,12.82
2022-11-20T06:16:03.427Z,11.55
2022-11-20T06:19:05.643Z,11.77
2022-11-20T06:22:08.158Z,11.85
2022-11-20T06:25:10.414Z,11.52
2022-11-20T06:28:14.029Z,11.27
2022-11-20T06:31:17.875Z,11.13
2022-11-20T06:34:20.404Z,12.50
2022-11-20T06:37:22.635Z,12.07
2022-11-20T06:40:24.919Z,11.68
2022-11-20T06:43:29.829Z,13.10
2022-11-20T06:46:32.175Z,12.65
2022-11-20T06:49:35.328Z,11.93
2022-11-20T06:52:42.395Z,13.50
2022-11-20T06:55:46.671Z,13.07
2022-11-20T06:58:50.393Z,13.98
2022-11-20T07:01:52.713Z,12.27
2022-11-20T07:04:54.992Z,12.93
2022-11-20T07:07:57.556Z,13.40
2022-11-20T07:11:00.806Z,13.15
2022-11-20T07:14:04.574Z,12.25
2022-11-20T07:17:06.806Z,12.48
2022-11-20T07:20:10.184Z,11.80
2022-11-20T07:23:12.432Z,11.57
2022-11-20T07:26:14.797Z,12.65
2022-11-20T07:29:18.550Z,12.27
2022-11-20T07:32:20.929Z,12.52
2022-11-20T07:35:23.734Z,12.38
2022-11-20T07:38:26.073Z,12.32
2022-11-20T07:41:28.695Z,12.57
2022-11-20T07:44:32.430Z,13.35
2022-11-20T07:47:36.521Z,12.35
2022-11-20T07:50:38.824Z,13.30
2022-11-20T07:53:41.133Z,13.40
2022-11-20T07:56:43.426Z,12.25
2022-11-20T07:59:47.121Z,12.70
2022-11-20T08:02:49.470Z,11.77
2022-11-20T08:05:51.916Z,12.07
2022-11-20T08:08:54.216Z,11.30
2022-11-20T08:12:14.775Z,11.25
2022-11-20T08:15:18.510Z,11.63
2022-11-20T08:18:31.058Z,10.82
2022-11-20T08:21:38.178Z,11.20
2022-11-20T08:24:40.703Z,11.77
2022-11-20T08:27:42.950Z,11.80
2022-11-20T08:30:46.959Z,10.52
2022-11-20T08:33:49.420Z,12.02
2022-11-20T08:36:51.940Z,11.82
2022-11-20T08:39:54.729Z,11.10
2022-11-20T08:42:57.000Z,11.00
2022-11-20T08:46:01.927Z,9.85
2022-11-20T08:49:04.502Z,11.15
2022-11-20T08:52:09.420Z,13.20
2022-11-20T08:55:11.719Z,10.35
2022-11-20T08:58:13.975Z,11.55
2022-11-20T09:01:17.733Z,11.07
2022-11-20T09:04:20.431Z,11.68
2022-11-20T09:07:23.126Z,12.00
2022-11-20T09:10:25.682Z,10.85
2022-11-20T09:13:29.587Z,12.07
2022-11-20T09:16:33.321Z,11.98
2022-11-20T09:19:36.522Z,12.50
2022-11-20T09:22:40.760Z,10.27
2022-11-20T09:25:43.200Z,10.57
2022-11-20T09:28:45.506Z,10.52
2022-11-20T09:31:49.224Z,10.55
2022-11-20T09:34:51.694Z,10.93
2022-11-20T09:37:54.188Z,10.70
2022-11-20T09:40:59.188Z,11.35
2022-11-20T09:44:12.938Z,12.48
2022-11-20T09:47:26.762Z,10.98
2022-11-20T09:50:33.465Z,10.70
2022-11-20T09:53:42.090Z,11.90
2022-11-20T09:56:46.572Z,13.38
2022-11-20T09:59:51.864Z,12.18
2022-11-20T10:02:58.950Z,10.82
2022-11-20T10:06:02.213Z,11.52
2022-11-20T10:09:20.426Z,10.48
2022-11-20T10:12:28.462Z,10.60
2022-11-20T10:15:35.494Z,11.98
2022-11-20T10:18:45.775Z,11.85
2022-11-20T10:21:57.786Z,11.57
2022-11-20T10:28:25.921Z,12.25
2022-11-20T10:31:32.819Z,14.10
2022-11-20T10:34:42.674Z,14.20
2022-11-20T10:37:46.574Z,14.15
2022-11-20T10:40:50.557Z,13.55
2022-11-20T10:43:58.043Z,12.60
2022-11-20T10:47:00.493Z,13.93
2022-11-20T10:50:06.826Z,13.95
2022-11-20T10:53:17.465Z,12.98
2022-11-20T10:56:22.106Z,12.52
2022-11-20T10:59:36.922Z,13.35
2022-11-20T11:02:42.851Z,12.88
2022-11-20T11:05:51.085Z,13.98
2022-11-20T11:08:54.782Z,13.57
2022-11-20T11:11:59.114Z,14.93
2022-11-20T11:15:04.432Z,15.35
2022-11-20T11:18:10.060Z,12.45
2022-11-20T11:21:14.420Z,13.40
2022-11-20T11:24:41.640Z,13.50
2022-11-20T11:27:48.035Z,12.10
2022-11-20T11:30:53.161Z,12.20
2022-11-20T11:34:05.919Z,14.35
2022-11-20T11:37:18.428Z,12.88
2022-11-20T11:40:24.666Z,14.27
2022-11-20T11:43:48.499Z,13.90
2022-11-20T11:46:56.544Z,12.80
2022-11-20T11:50:03.850Z,13.40
2022-11-20T11:53:11.440Z,12.77
2022-11-20T11:56:18.037Z,13.20
2022-11-20T11:59:25.692Z,12.85
2022-11-20T12:02:37.382Z,13.45
2022-11-20T12:05:43.064Z,14.23
2022-11-20T12:08:50.592Z,13.43
2022-11-20T12:11:57.004Z,11.88
2022-11-20T12:14:59.685Z,14.57
2022-11-20T12:18:02.072Z,13.32
2022-11-20T12:21:12.812Z,14.27
2022-11-20T12:24:36.560Z,14.27
2022-11-20T12:27:52.418Z,11.05
2022-11-20T12:31:19.729Z,13.00
2022-11-20T12:34:33.101Z,11.27
2022-11-20T12:37:40.842Z,13.43
2022-11-20T12:40:47.955Z,11.27
2022-11-20T12:44:21.511Z,11.52
2022-11-20T12:47:29.655Z,14.25
2022-11-20T12:51:00.344Z,13.68
2022-11-20T12:54:26.992Z,12.73
2022-11-20T12:57:37.115Z,12.45
2022-11-20T13:00:44.637Z,12.70
2022-11-20T13:03:50.453Z,13.52
2022-11-20T13:06:53.064Z,14.63
2022-11-20T13:09:55.922Z,11.43
2022-11-20T13:13:03.573Z,12.90
2022-11-20T13:16:09.562Z,12.35
2022-11-20T13:19:14.622Z,13.10
2022-11-20T13:22:25.610Z,9.32
2022-11-20T13:25:29.063Z,11.98
2022-11-20T13:28:32.836Z,13.73
2022-11-20T13:31:36.321Z,11.40
2022-11-20T13:34:38.751Z,14.68
2022-11-20T13:37:41.128Z,12.00
2022-11-20T13:40:52.535Z,11.70
2022-11-20T13:44:08.912Z,13.10
2022-11-20T13:47:21.403Z,13.18
2022-11-20T13:50:40.071Z,11.75
2022-11-20T13:53:58.319Z,12.32
2022-11-20T13:57:09.522Z,12.07
2022-11-20T14:00:15.924Z,12.88
2022-11-20T14:03:28.465Z,11.20
2022-11-20T14:06:44.616Z,13.02
2022-11-20T14:09:52.186Z,12.75
2022-11-20T14:12:54.548Z,13.65
2022-11-20T14:15:59.302Z,13.23
2022-11-20T14:19:24.840Z,14.48
2022-11-20T14:22:28.171Z,14.02
2022-11-20T14:25:32.106Z,13.30
2022-11-20T14:28:34.514Z,11.90
2022-11-20T14:31:38.269Z,13.93
2022-11-20T14:34:41.616Z,12.45
2022-11-20T14:37:47.246Z,13.38
2022-11-20T14:40:49.619Z,12.32
2022-11-20T14:43:55.563Z,12.18
2022-11-20T14:47:00.410Z,13.20
2022-11-20T14:50:07.377Z,11.90
2022-11-20T14:53:12.318Z,13.45
2022-11-20T14:56:22.539Z,12.95
2022-11-20T14:59:25.817Z,12.73
2022-11-20T15:02:31.029Z,12.27
2022-11-20T15:05:47.439Z,12.98
2022-11-20T15:08:52.197Z,11.73
2022-11-20T15:11:56.826Z,11.07
2022-11-20T15:14:59.437Z,12.13
2022-11-20T15:18:03.288Z,12.10
2022-11-20T15:21:11.799Z,12.75
2022-11-20T15:24:14.043Z,13.50
2022-11-20T15:27:16.345Z,13.80
2022-11-20T15:30:20.390Z,14.48
2022-11-20T15:33:24.044Z,14.27
2022-11-20T15:36:26.425Z,12.38
2022-11-20T15:39:28.728Z,13.88
2022-11-20T15:42:31.247Z,14.23
2022-11-20T15:45:37.406Z,13.68
2022-11-20T15:48:47.941Z,13.05
2022-11-20T15:51:51.191Z,12.48
2022-11-20T15:54:53.644Z,12.68
2022-11-20T15:57:55.959Z,11.82
2022-11-20T16:00:58.708Z,11.48
2022-11-20T16:04:02.551Z,11.32
2022-11-20T16:07:05.121Z,11.48
2022-11-20T16:10:08.191Z,11.93
2022-11-20T16:13:33.476Z,11.38
2022-11-20T16:16:37.885Z,10.18
2022-11-20T16:19:41.751Z,11.88
2022-11-20T16:22:44.179Z,10.05
2022-11-20T16:25:46.874Z,10.07
2022-11-20T16:28:51.120Z,9.65
2022-11-20T16:31:53.507Z,9.93
2022-11-20T16:34:57.248Z,9.30
2022-11-20T16:37:59.714Z,9.20
2022-11-20T16:41:02.649Z,5.93
2022-11-20T16:44:08.626Z,4.35
2022-11-20T16:47:10.897Z,4.20
2022-11-20T16:50:14.745Z,3.92
2022-11-20T16:53:17.470Z,5.85
2022-11-20T16:56:21.323Z,4.80
2022-11-20T16:59:24.160Z,4.97
2022-11-20T17:02:27.238Z,5.00
2022-11-20T17:05:31.758Z,5.40
2022-11-20T17:08:34.685Z,3.83
2022-11-20T17:11:37.547Z,2.95
2022-11-20T17:14:40.125Z,2.72
2022-11-20T17:17:42.576Z,2.53
2022-11-20T17:20:53.005Z,3.80
2022-11-20T17:23:55.353Z,2.78
2022-11-20T17:26:57.892Z,3.08
2022-11-20T17:30:01.041Z,3.25
2022-11-20T17:33:03.386Z,3.50
2022-11-20T17:36:09.184Z,4.40
2022-11-20T17:39:12.063Z,5.82
2022-11-20T17:42:26.676Z,5.85
2022-11-20T17:45:29.502Z,5.20
2022-11-20T17:48:32.273Z,5.20
2022-11-20T17:51:36.815Z,5.13
2022-11-20T17:54:39.467Z,5.65
2022-11-20T17:57:56.866Z,5.15
2022-11-20T18:01:05.116Z,5.13
2022-11-20T18:04:08.193Z,5.57
2022-11-20T18:07:12.468Z,4.72
2022-11-20T18:10:16.435Z,5.38
2022-11-20T18:13:18.895Z,5.72
2022-11-20T18:16:22.043Z,4.43
2022-11-20T18:19:31.316Z,4.68
2022-11-20T18:22:35.770Z,5.00
2022-11-20T18:25:38.991Z,4.78
2022-11-20T18:28:41.997Z,4.22
2022-11-20T18:31:45.216Z,3.85
2022-11-20T18:34:47.737Z,4.05
2022-11-20T18:37:51.701Z,3.65
2022-11-20T18:40:54.122Z,4.15
2022-11-20T18:44:16.059Z,3.08
2022-11-20T18:47:20.722Z,3.38
2022-11-20T18:50:23.171Z,4.47
2022-11-20T18:53:27.707Z,3.78
2022-11-20T18:56:31.317Z,3.70
2022-11-20T18:59:34.144Z,3.97
2022-11-20T19:02:41.530Z,3.38
2022-11-20T19:05:44.796Z,3.05
2022-11-20T19:08:48.487Z,2.75
2022-11-20T19:11:51.062Z,2.40
2022-11-20T19:14:53.551Z,2.30
2022-11-20T19:17:57.614Z,2.90
2022-11-20T19:21:07.230Z,2.67
2022-11-20T19:24:11.011Z,2.63
2022-11-20T19:27:13.512Z,2.55
2022-11-20T19:30:16.007Z,2.72
2022-11-20T19:33:18.364Z,2.22
2022-11-20T19:36:22.478Z,2.30
2022-11-20T19:39:26.650Z,4.60
2022-11-20T19:42:29.212Z,3.20
2022-11-20T19:45:31.985Z,2.90
2022-11-20T19:48:35.291Z,2.30
2022-11-20T19:51:40.007Z,3.25
2022-11-20T19:54:43.640Z,2.80
2022-11-20T19:57:45.960Z,2.83
2022-11-20T20:00:48.307Z,3.13
2022-11-20T20:03:51.162Z,3.20
2022-11-20T20:06:53.627Z,2.45
2022-11-20T20:09:57.294Z,2.72
2022-11-20T20:12:59.628Z,2.22
2022-11-20T20:16:01.991Z,2.63
2022-11-20T20:19:05.096Z,2.40
2022-11-20T20:22:07.422Z,2.08
2022-11-20T20:25:11.223Z,2.45
2022-11-20T20:28:13.633Z,2.15
2022-11-20T20:31:17.642Z,1.92
2022-11-20T20:34:20.133Z,2.47
2022-11-20T20:37:22.389Z,2.35
2022-11-20T20:40:26.113Z,1.58
2022-11-20T20:43:28.852Z,2.75
2022-11-20T20:46:31.237Z,2.25
2022-11-20T20:49:33.592Z,3.15
2022-11-20T20:52:36.109Z,2.45
2022-11-20T20:55:39.763Z,1.60
2022-11-20T20:58:42.214Z,1.63
2022-11-20T21:01:44.475Z,1.88
2022-11-20T21:04:46.694Z,1.80
2022-11-20T21:08:07.659Z,1.13
2022-11-20T21:11:33.010Z,1.45
2022-11-20T21:14:35.650Z,1.58
2022-11-20T21:17:38.133Z,2.10
2022-11-20T21:20:59.046Z,1.08
2022-11-20T21:24:01.660Z,1.40
2022-11-20T21:27:07.490Z,0.93
2022-11-20T21:30:10.911Z,1.27
2022-11-20T21:33:13.552Z,0.90
2022-11-20T21:36:17.271Z,1.45
2022-11-20T21:39:21.764Z,2.13
2022-11-20T21:42:25.592Z,1.80
2022-11-20T21:45:27.929Z,1.55
2022-11-20T21:48:31.627Z,1.80
2022-11-20T21:51:35.239Z,6.72
2022-11-20T21:54:37.616Z,7.80
2022-11-20T21:57:41.249Z,3.92
2022-11-20T22:00:43.582Z,3.03
2022-11-20T22:03:47.777Z,2.90
2022-11-20T22:06:50.074Z,2.63
2022-11-20T22:09:52.395Z,2.25
2022-11-20T22:13:16.276Z,2.85
2022-11-20T22:16:18.798Z,1.88
2022-11-20T22:19:22.411Z,1.98
2022-11-20T22:22:24.651Z,2.10
2022-11-20T22:25:26.959Z,2.40
2022-11-20T22:28:30.657Z,4.57
2022-11-20T22:31:33.021Z,3.53
2022-11-20T22:34:35.449Z,3.10
2022-11-20T22:37:37.717Z,2.13
2022-11-20T22:40:40.087Z,2.35
2022-11-20T22:43:44.675Z,1.77
2022-11-20T22:46:46.964Z,2.13
2022-11-20T22:49:49.798Z,2.53
2022-11-20T22:52:52.041Z,2.50
2022-11-20T22:55:54.448Z,2.10
2022-11-20T22:58:58.171Z,3.13
2022-11-20T23:02:00.808Z,2.15
2022-11-20T23:05:03.185Z,2.63
2022-11-20T23:08:05.641Z,3.28
2022-11-20T23:11:09.762Z,2.30
2022-11-20T23:14:15.276Z,2.20
2022-11-20T23:17:17.584Z,2.38
2022-11-20T23:20:19.917Z,2.40
2022-11-20T23:23:22.244Z,2.65
2022-11-20T23:26:26.019Z,3.17
2022-11-20T23:29:29.690Z,2.70
2022-11-20T23:32:32.025Z,2.30
2022-11-20T23:35:38.716Z,3.67
2022-11-20T23:38:41.531Z,2.40
2022-11-20T23:41:43.737Z,3.88
2022-11-20T23:44:47.401Z,2.55
2022-11-20T23:47:50.088Z,3.05
2022-11-20T23:50:52.398Z,3.92
2022-11-20T23:53:54.681Z,2.78
2022-11-20T23:56:57.026Z,4.65
